Time;durP1;ratioP1;P1;durP2;ratioP2;P2;SDS_P1;SDS_P2;PMS_P1;PMS_P2;Temp;Humidity;BMP_temperature;BMP_pressure;BME280_temperature;BME280_humidity;BME280_pressure;Samples;Min_cycle;Max_cycle;Signal;HPM_P1;HPM_P2
2021/10/03 00:01:34;;;;;;;12.50;9.77;;;;;;;13.87;100.00;100160.88;4899023;29;20100;-89
2021/10/03 00:04:02;;;;;;;11.32;9.27;;;;;;;13.88;100.00;100159.91;4900247;29;20053;-89
2021/10/03 00:06:29;;;;;;;9.75;8.50;;;;;;;13.88;100.00;100157.28;4900173;29;20108;-88
2021/10/03 00:08:58;;;;;;;12.82;9.82;;;;;;;13.84;100.00;100166.28;4899855;29;20049;-88
2021/10/03 00:11:25;;;;;;;14.07;9.77;;;;;;;13.78;100.00;100161.44;4900828;29;20044;-89
2021/10/03 00:13:52;;;;;;;11.68;10.43;;;;;;;13.81;100.00;100169.97;4904325;29;20052;-89
2021/10/03 00:16:19;;;;;;;12.00;8.82;;;;;;;13.85;100.00;100168.84;4901860;29;20112;-90
2021/10/03 00:18:51;;;;;;;13.65;10.38;;;;;;;13.78;100.00;100167.53;4908443;29;20060;-90
2021/10/03 00:21:37;;;;;;;10.50;8.75;;;;;;;13.71;100.00;100166.25;4917641;29;20045;-91
2021/10/03 00:24:04;;;;;;;13.13;8.80;;;;;;;13.76;100.00;100166.81;4913060;29;20047;-92
2021/10/03 00:26:31;;;;;;;14.38;10.52;;;;;;;13.95;100.00;100153.31;4907867;29;20049;-91
2021/10/03 00:28:58;;;;;;;12.95;10.25;;;;;;;14.05;100.00;100167.50;4927910;29;20048;-90
2021/10/03 00:31:25;;;;;;;13.18;9.82;;;;;;;14.03;100.00;100171.19;4908598;29;20436;-90
2021/10/03 00:33:52;;;;;;;15.55;10.80;;;;;;;14.08;100.00;100169.94;4914612;29;20048;-88
2021/10/03 00:36:19;;;;;;;14.15;10.05;;;;;;;14.11;100.00;100154.03;4898305;29;20100;-89
2021/10/03 00:38:46;;;;;;;13.82;10.07;;;;;;;14.15;100.00;100159.88;4899253;29;20049;-89
2021/10/03 00:41:14;;;;;;;10.52;8.57;;;;;;;13.97;100.00;100167.19;4902933;29;20045;-90
2021/10/03 00:43:41;;;;;;;14.73;9.57;;;;;;;13.92;100.00;100171.88;4903951;29;20355;-89
2021/10/03 00:46:09;;;;;;;14.48;9.85;;;;;;;13.90;100.00;100155.41;4902657;29;20041;-90
2021/10/03 00:48:35;;;;;;;14.10;9.15;;;;;;;13.87;100.00;100166.09;4884630;29;20126;-90
2021/10/03 00:51:03;;;;;;;13.20;10.13;;;;;;;13.89;100.00;100157.19;4900660;29;20464;-90
2021/10/03 00:53:30;;;;;;;10.45;9.35;;;;;;;13.74;100.00;100152.09;4900102;29;20063;-93
2021/10/03 00:55:57;;;;;;;10.63;8.70;;;;;;;13.69;100.00;100144.56;4900727;29;20100;-90
2021/10/03 00:58:24;;;;;;;11.70;8.48;;;;;;;13.61;100.00;100145.03;4885065;29;20052;-89
2021/10/03 01:00:51;;;;;;;11.95;8.35;;;;;;;13.57;100.00;100143.56;4901954;29;20045;-90
2021/10/03 01:03:18;;;;;;;17.60;9.50;;;;;;;13.57;100.00;100146.16;4901067;29;20096;-90
2021/10/03 01:05:45;;;;;;;11.52;9.32;;;;;;;13.57;100.00;100138.31;4902182;29;20049;-92
2021/10/03 01:08:12;;;;;;;13.07;9.35;;;;;;;13.59;100.00;100140.84;4902724;29;20460;-92
2021/10/03 01:10:39;;;;;;;13.07;9.52;;;;;;;13.57;100.00;100133.06;4902009;29;20041;-91
2021/10/03 01:13:11;;;;;;;11.27;8.73;;;;;;;13.49;100.00;100130.13;4902345;29;20052;-91
2021/10/03 01:15:43;;;;;;;15.05;9.40;;;;;;;13.48;100.00;100125.84;4901664;29;20049;-89
2021/10/03 01:18:11;;;;;;;11.95;9.05;;;;;;;13.42;100.00;100123.56;4902628;29;20056;-90
2021/10/03 01:20:39;;;;;;;12.85;9.70;;;;;;;13.38;100.00;100127.34;4902588;29;20060;-89
2021/10/03 01:23:06;;;;;;;14.48;9.13;;;;;;;13.43;100.00;100119.22;4905563;29;20124;-90
2021/10/03 01:25:37;;;;;;;13.55;9.25;;;;;;;13.41;100.00;100116.66;4909458;29;20051;-92
2021/10/03 01:28:05;;;;;;;10.10;8.90;;;;;;;13.40;100.00;100119.38;4908383;29;20083;-92
2021/10/03 01:30:34;;;;;;;10.98;9.18;;;;;;;13.37;100.00;100115.19;4908198;29;20049;-92
2021/10/03 01:33:01;;;;;;;13.90;8.90;;;;;;;13.27;100.00;100119.34;4918021;29;20075;-92
2021/10/03 01:35:30;;;;;;;14.10;9.73;;;;;;;13.28;100.00;100115.78;4916819;23;20512;-85
2021/10/03 01:37:57;;;;;;;19.67;10.52;;;;;;;13.31;100.00;100115.56;4899417;29;20092;-86
2021/10/03 01:40:25;;;;;;;12.52;9.80;;;;;;;13.33;100.00;100118.94;4899672;29;20088;-86
2021/10/03 01:42:53;;;;;;;11.82;8.30;;;;;;;13.23;100.00;100123.06;4899182;29;20519;-86
2021/10/03 01:45:21;;;;;;;10.45;9.35;;;;;;;13.16;100.00;100117.38;4898368;29;20041;-86
2021/10/03 01:48:00;;;;;;;11.70;9.60;;;;;;;13.19;100.00;100113.69;4899366;29;20052;-86
2021/10/03 01:50:27;;;;;;;11.05;8.60;;;;;;;13.14;100.00;100118.38;4898487;29;20049;-88
2021/10/03 01:52:54;;;;;;;13.18;9.50;;;;;;;13.14;100.00;100118.38;4895933;29;20797;-88
2021/10/03 01:55:21;;;;;;;10.77;8.93;;;;;;;13.15;100.00;100115.66;4891878;29;20041;-87
2021/10/03 01:57:47;;;;;;;13.82;10.45;;;;;;;13.21;100.00;100120.56;4891356;29;20055;-87
2021/10/03 02:00:15;;;;;;;14.32;11.48;;;;;;;13.21;100.00;100119.66;4898889;29;20045;-88
2021/10/03 02:02:42;;;;;;;13.73;10.60;;;;;;;13.22;100.00;100110.94;4899588;29;20049;-88
2021/10/03 02:05:09;;;;;;;15.80;10.35;;;;;;;13.24;100.00;100114.28;4891528;29;20084;-88
2021/10/03 02:07:36;;;;;;;13.20;9.77;;;;;;;13.16;100.00;100113.91;4880537;29;20390;-87
2021/10/03 02:10:04;;;;;;;14.93;9.88;;;;;;;13.09;100.00;100111.66;4880027;29;20049;-88
2021/10/03 02:12:31;;;;;;;13.68;10.10;;;;;;;12.80;100.00;100116.06;4880321;29;20089;-88
2021/10/03 02:14:57;;;;;;;13.57;10.07;;;;;;;12.88;100.00;100107.75;4879858;29;20498;-88
2021/10/03 02:17:24;;;;;;;12.73;9.18;;;;;;;12.89;100.00;100103.34;4880514;29;20457;-88
2021/10/03 02:19:53;;;;;;;13.52;9.15;;;;;;;13.01;100.00;100108.69;4879653;29;20091;-88
2021/10/03 02:22:20;;;;;;;12.13;9.65;;;;;;;12.90;100.00;100098.06;4878887;29;20088;-88
2021/10/03 02:24:47;;;;;;;10.95;9.80;;;;;;;12.84;100.00;100106.28;4880369;29;20052;-88
2021/10/03 02:27:13;;;;;;;11.80;9.52;;;;;;;12.89;100.00;100096.38;4879922;29;20045;-88
2021/10/03 02:29:40;;;;;;;14.65;9.38;;;;;;;12.84;100.00;100106.28;4880103;29;20508;-88
2021/10/03 02:32:07;;;;;;;11.77;10.45;;;;;;;12.82;100.00;100108.13;4879643;29;20043;-88
2021/10/03 02:34:33;;;;;;;14.98;10.52;;;;;;;12.86;100.00;100104.41;4878621;29;20112;-88
2021/10/03 02:37:00;;;;;;;19.05;12.38;;;;;;;12.91;100.00;100102.34;4879558;29;20093;-87
2021/10/03 02:39:27;;;;;;;14.93;9.80;;;;;;;12.93;100.00;100103.06;4880131;29;20116;-88
2021/10/03 02:41:54;;;;;;;16.60;10.40;;;;;;;12.86;100.00;100101.78;4879265;29;20511;-88
2021/10/03 02:44:21;;;;;;;12.68;9.05;;;;;;;12.82;100.00;100093.28;4879899;29;20109;-88
2021/10/03 02:46:47;;;;;;;15.75;10.02;;;;;;;12.77;100.00;100090.09;4879617;29;20105;-88
2021/10/03 02:49:14;;;;;;;13.68;9.32;;;;;;;12.76;100.00;100083.19;4879552;29;20053;-88
2021/10/03 02:51:43;;;;;;;13.80;11.48;;;;;;;12.80;100.00;100083.84;4879752;29;20071;-89
2021/10/03 02:54:12;;;;;;;15.23;11.45;;;;;;;12.78;100.00;100080.47;4877918;29;20068;-87
2021/10/03 02:56:41;;;;;;;13.43;10.65;;;;;;;12.76;100.00;100080.56;4879563;29;20051;-88
2021/10/03 02:59:08;;;;;;;17.20;11.35;;;;;;;12.79;100.00;100079.56;4878945;29;20049;-87
2021/10/03 03:01:35;;;;;;;12.18;10.43;;;;;;;12.79;100.00;100085.63;4879037;29;20045;-87
2021/10/03 03:04:02;;;;;;;14.90;11.95;;;;;;;12.81;100.00;100082.91;4879067;29;20045;-87
2021/10/03 03:06:29;;;;;;;11.65;10.48;;;;;;;12.64;100.00;100083.13;4879037;29;20053;-87
2021/10/03 03:08:56;;;;;;;12.98;10.18;;;;;;;12.53;100.00;100076.75;4879418;29;20052;-87
2021/10/03 03:11:22;;;;;;;11.93;10.70;;;;;;;12.58;100.00;100071.25;4879119;29;20057;-87
2021/10/03 03:13:49;;;;;;;15.48;10.70;;;;;;;12.56;100.00;100073.94;4879195;29;20045;-87
2021/10/03 03:16:16;;;;;;;19.50;12.68;;;;;;;12.61;100.00;100083.28;4878585;29;20144;-87
2021/10/03 03:18:43;;;;;;;14.75;11.68;;;;;;;12.54;100.00;100083.66;4879321;29;20052;-87
2021/10/03 03:21:11;;;;;;;14.40;11.05;;;;;;;12.55;100.00;100080.13;4878782;29;20040;-87
2021/10/03 03:23:38;;;;;;;16.85;11.52;;;;;;;12.57;100.00;100078.25;4879508;29;20053;-88
2021/10/03 03:26:05;;;;;;;14.10;10.60;;;;;;;12.52;100.00;100082.94;4877741;29;20053;-88
2021/10/03 03:28:33;;;;;;;14.35;11.68;;;;;;;12.56;100.00;100076.56;4879263;29;20101;-88
2021/10/03 03:31:00;;;;;;;15.77;11.75;;;;;;;12.48;100.00;100075.34;4878790;29;20041;-88
2021/10/03 03:33:27;;;;;;;16.05;11.15;;;;;;;12.38;100.00;100071.63;4879052;29;20076;-88
2021/10/03 03:35:54;;;;;;;14.65;10.55;;;;;;;12.44;100.00;100064.25;4878928;29;20501;-88
2021/10/03 03:38:21;;;;;;;14.65;11.85;;;;;;;12.49;100.00;100063.97;4878984;29;20453;-87
2021/10/03 03:40:48;;;;;;;13.13;10.80;;;;;;;12.51;100.00;100070.75;4877617;29;20385;-88
2021/10/03 03:43:15;;;;;;;18.55;11.27;;;;;;;12.48;100.00;100067.53;4878614;29;20045;-87
2021/10/03 03:45:42;;;;;;;16.85;12.13;;;;;;;12.46;100.00;100064.97;4878798;29;20064;-88
2021/10/03 03:48:10;;;;;;;15.93;11.88;;;;;;;12.50;100.00;100056.03;4878682;29;20045;-88
2021/10/03 03:50:39;;;;;;;17.52;12.60;;;;;;;12.56;100.00;100068.72;4878922;29;20041;-87
2021/10/03 03:53:06;;;;;;;15.90;12.27;;;;;;;12.43;100.00;100059.94;4861646;29;20128;-88
2021/10/03 03:55:33;;;;;;;16.13;12.52;;;;;;;12.53;100.00;100066.31;4878428;29;20045;-88
2021/10/03 03:58:00;;;;;;;18.42;13.32;;;;;;;12.58;100.00;100055.56;4878621;29;20056;-88
2021/10/03 04:00:27;;;;;;;16.63;12.77;;;;;;;12.55;100.00;100047.91;4878658;29;20445;-87
2021/10/03 04:02:54;;;;;;;15.98;12.93;;;;;;;12.61;100.00;100059.75;4878850;29;20132;-87
2021/10/03 04:05:21;;;;;;;16.15;12.75;;;;;;;12.56;100.00;100055.63;4878218;29;20113;-85
2021/10/03 04:07:48;;;;;;;17.42;12.00;;;;;;;12.51;100.00;100057.69;4878936;29;20401;-87
2021/10/03 04:10:15;;;;;;;15.40;12.57;;;;;;;12.56;100.00;100054.81;4878061;29;20045;-87
2021/10/03 04:12:42;;;;;;;17.25;13.70;;;;;;;12.60;100.00;100045.84;4878955;29;20045;-87
2021/10/03 04:15:09;;;;;;;16.33;14.57;;;;;;;12.76;100.00;100045.75;4879984;29;20535;-87
2021/10/03 04:17:37;;;;;;;17.65;13.88;;;;;;;12.69;100.00;100054.91;4882446;29;20052;-85
2021/10/03 04:20:05;;;;;;;20.05;12.95;;;;;;;12.62;100.00;100054.41;4881799;29;20060;-86
2021/10/03 04:22:33;;;;;;;19.20;13.70;;;;;;;12.58;100.00;100053.78;4882144;29;20053;-88
2021/10/03 04:25:00;;;;;;;19.67;12.85;;;;;;;12.58;100.00;100047.72;4882308;29;20070;-88
2021/10/03 04:27:26;;;;;;;17.70;12.88;;;;;;;12.63;100.00;100042.22;4881862;29;20073;-87
2021/10/03 04:29:53;;;;;;;17.20;13.25;;;;;;;12.68;100.00;100043.63;4882043;29;20072;-87
2021/10/03 04:32:20;;;;;;;18.17;13.68;;;;;;;12.69;100.00;100049.69;4880627;29;20053;-87
2021/10/03 04:34:47;;;;;;;19.38;15.43;;;;;;;12.69;100.00;100040.06;4881810;29;20057;-86
2021/10/03 04:37:13;;;;;;;20.13;14.52;;;;;;;12.66;100.00;100036.78;4881530;29;20488;-87
2021/10/03 04:39:40;;;;;;;18.35;14.50;;;;;;;12.53;100.00;100037.53;4876813;29;20045;-85
2021/10/03 04:42:07;;;;;;;21.13;12.23;;;;;;;12.50;100.00;100042.94;4874332;29;20044;-85
2021/10/03 04:44:34;;;;;;;20.30;12.23;;;;;;;12.45;100.00;100045.00;4881462;29;20041;-86
2021/10/03 04:47:01;;;;;;;16.83;11.80;;;;;;;12.33;100.00;100046.59;4881411;29;20568;-86
2021/10/03 04:49:28;;;;;;;16.08;11.02;;;;;;;12.37;100.00;100041.19;4879994;29;20569;-86
2021/10/03 04:51:55;;;;;;;15.48;11.63;;;;;;;12.14;100.00;100047.78;4881178;29;20049;-87
2021/10/03 04:54:22;;;;;;;16.42;12.00;;;;;;;12.11;100.00;100048.81;4881095;29;20147;-84
2021/10/03 04:56:49;;;;;;;17.15;12.02;;;;;;;12.18;100.00;100049.28;4881026;29;20041;-87
2021/10/03 04:59:15;;;;;;;18.35;13.27;;;;;;;12.22;100.00;100050.78;4881178;29;20045;-88
2021/10/03 05:01:45;;;;;;;17.50;13.88;;;;;;;12.24;100.00;100039.28;4877756;29;20175;-86
2021/10/03 05:04:12;;;;;;;21.27;14.18;;;;;;;12.14;100.00;100047.78;4871172;29;20060;-86
2021/10/03 05:06:39;;;;;;;20.88;13.75;;;;;;;12.21;100.00;100044.72;4875177;29;20117;-87
2021/10/03 05:09:06;;;;;;;24.23;16.23;;;;;;;12.28;100.00;100042.56;4877541;29;20049;-85
2021/10/03 05:11:33;;;;;;;26.02;17.88;;;;;;;12.27;100.00;100046.13;4879686;29;20053;-86
2021/10/03 05:14:05;;;;;;;26.40;19.25;;;;;;;12.32;100.00;100041.47;4876771;29;20068;-86
2021/10/03 05:16:34;;;;;;;26.48;18.48;;;;;;;12.35;100.00;100046.50;4878449;29;20060;-84
2021/10/03 05:19:02;;;;;;;28.70;19.55;;;;;;;12.38;100.00;100051.53;4876704;29;20097;-84
2021/10/03 05:21:29;;;;;;;21.23;15.55;;;;;;;12.21;100.00;100054.34;4875993;29;20047;-84
2021/10/03 05:23:57;;;;;;;19.70;13.27;;;;;;;12.23;100.00;100052.47;4877710;29;20136;-87
2021/10/03 05:26:24;;;;;;;23.50;15.95;;;;;;;12.22;100.00;100045.56;4875290;29;20052;-90
2021/10/03 05:28:55;;;;;;;20.80;15.90;;;;;;;12.27;100.00;100043.50;4877327;29;20045;-86
2021/10/03 05:31:23;;;;;;;21.75;15.95;;;;;;;12.27;100.00;100044.34;4874079;29;20041;-88
2021/10/03 05:33:50;;;;;;;25.65;16.40;;;;;;;12.34;100.00;100050.03;4870863;29;20548;-88
2021/10/03 05:36:18;;;;;;;25.75;15.93;;;;;;;12.48;100.00;100047.44;4877172;29;20048;-87
2021/10/03 05:38:44;;;;;;;28.10;18.50;;;;;;;12.62;100.00;100051.81;4874933;29;20057;-87
2021/10/03 05:41:11;;;;;;;28.38;16.83;;;;;;;12.77;100.00;100047.41;4876317;29;20034;-87
2021/10/03 05:43:39;;;;;;;29.77;19.88;;;;;;;12.88;100.00;100039.72;4873211;29;20172;-87
2021/10/03 05:46:08;;;;;;;22.15;17.08;;;;;;;12.96;100.00;100037.50;4874824;29;20049;-86
2021/10/03 05:48:35;;;;;;;28.10;18.75;;;;;;;13.04;100.00;100040.44;4875459;29;20168;-93
2021/10/03 05:51:02;;;;;;;21.48;17.15;;;;;;;13.13;100.00;100043.44;4874281;29;20049;-88
2021/10/03 05:53:29;;;;;;;28.85;18.55;;;;;;;13.13;100.00;100048.66;4875234;29;20041;-87
2021/10/03 05:55:58;;;;;;;25.40;17.42;;;;;;;13.16;100.00;100038.00;4879620;29;20489;-87
2021/10/03 05:58:25;;;;;;;29.67;19.70;;;;;;;13.38;100.00;100051.44;4878133;29;20037;-85
2021/10/03 06:00:52;;;;;;;25.92;19.73;;;;;;;13.43;100.00;100046.72;4878730;29;20074;-85
2021/10/03 06:03:19;;;;;;;27.05;20.52;;;;;;;13.56;100.00;100041.53;4879624;29;20065;-86
2021/10/03 06:05:46;;;;;;;24.42;19.77;;;;;;;13.63;100.00;100048.91;4879007;29;20049;-86
2021/10/03 06:08:16;;;;;;;31.10;21.80;;;;;;;13.66;100.00;100044.38;4880128;29;20049;-87
2021/10/03 06:10:44;;;;;;;29.00;20.85;;;;;;;13.75;100.00;100051.63;4876968;29;20441;-87
2021/10/03 06:13:11;;;;;;;27.42;20.00;;;;;;;13.95;100.00;100048.50;4879285;29;20085;-84
2021/10/03 06:15:42;;;;;;;25.42;19.35;;;;;;;14.05;100.00;100046.94;4878508;29;20049;-87
2021/10/03 06:18:11;;;;;;;26.08;20.50;;;;;;;13.93;100.00;100045.16;4874137;29;20049;-85
2021/10/03 06:20:38;;;;;;;27.08;21.40;;;;;;;13.92;100.00;100053.13;4878563;29;20044;-82
2021/10/03 06:23:05;;;;;;;26.13;20.50;;;;;;;14.02;100.00;100046.34;4878540;29;20453;-85
2021/10/03 06:25:32;;;;;;;29.40;20.40;;;;;;;14.29;100.00;100059.34;4876887;29;20139;-85
2021/10/03 06:27:59;;;;;;;24.38;19.27;;;;;;;14.22;100.00;100056.31;4876024;29;20507;-86
2021/10/03 06:30:26;;;;;;;25.25;21.75;;;;;;;14.10;100.00;100065.81;4878657;29;20040;-86
2021/10/03 06:32:54;;;;;;;22.92;19.48;;;;;;;14.07;100.00;100071.28;4876978;29;20092;-81
2021/10/03 06:35:22;;;;;;;21.50;17.65;;;;;;;14.53;100.00;100068.16;4876851;29;20542;-84
2021/10/03 06:37:49;;;;;;;26.15;19.00;;;;;;;14.41;100.00;100067.22;4877951;29;20045;-86
2021/10/03 06:40:15;;;;;;;27.27;20.02;;;;;;;14.59;100.00;100070.38;4880456;29;20045;-84
2021/10/03 06:42:42;;;;;;;23.85;19.15;;;;;;;14.53;100.00;100075.19;4879426;29;20048;-85
2021/10/03 06:45:09;;;;;;;27.65;20.55;;;;;;;14.64;100.00;100080.53;4879729;29;20101;-86
2021/10/03 06:47:36;;;;;;;28.98;20.05;;;;;;;14.63;100.00;100077.09;4879033;29;20123;-85
2021/10/03 06:50:04;;;;;;;31.25;19.67;;;;;;;14.42;100.00;100078.53;4877127;29;20044;-86
2021/10/03 06:52:34;;;;;;;23.38;18.58;;;;;;;14.58;100.00;100088.84;4876581;29;20041;-85
2021/10/03 06:55:04;;;;;;;22.42;19.02;;;;;;;14.71;100.00;100096.72;4878273;29;20088;-85
2021/10/03 06:57:34;;;;;;;23.92;18.48;;;;;;;14.47;100.00;100107.06;4877047;29;20123;-85
2021/10/03 07:00:03;;;;;;;23.95;17.35;;;;;;;14.39;100.00;100102.34;4875830;29;20044;-87
2021/10/03 07:02:31;;;;;;;21.88;18.27;;;;;;;14.43;100.00;100101.19;4875659;29;20049;-86
2021/10/03 07:04:58;;;;;;;30.60;19.23;;;;;;;14.52;100.00;100105.84;4879387;29;20056;-86
2021/10/03 07:07:25;;;;;;;26.30;19.50;;;;;;;15.03;100.00;100104.97;4879578;29;20049;-85
2021/10/03 07:09:52;;;;;;;26.40;21.65;;;;;;;15.15;100.00;100098.84;4879398;29;20112;-85
2021/10/03 07:12:19;;;;;;;29.45;21.48;;;;;;;15.00;100.00;100103.38;4877840;29;20109;-85
2021/10/03 07:14:45;;;;;;;34.35;23.63;;;;;;;14.69;100.00;100107.31;4878903;29;20045;-83
2021/10/03 07:17:13;;;;;;;31.58;22.70;;;;;;;14.55;100.00;100110.06;4878654;29;20404;-81
2021/10/03 07:19:40;;;;;;;30.10;21.92;;;;;;;14.88;100.00;100107.72;4880099;29;20496;-85
2021/10/03 07:22:08;;;;;;;29.23;21.20;;;;;;;14.85;100.00;100112.31;4877346;29;20504;-84
2021/10/03 07:24:36;;;;;;;28.30;22.17;;;;;;;14.86;100.00;100109.63;4878562;29;20140;-87
2021/10/03 07:27:04;;;;;;;27.75;20.98;;;;;;;14.86;100.00;100112.25;4878624;29;20696;-85
2021/10/03 07:29:33;;;;;;;53.10;29.60;;;;;;;14.61;100.00;100118.34;4879317;29;20073;-84
2021/10/03 07:32:00;;;;;;;55.30;29.15;;;;;;;14.74;100.00;100114.84;4879199;29;20048;-87
2021/10/03 07:34:28;;;;;;;55.05;29.35;;;;;;;14.71;100.00;100117.72;4878878;29;20057;-85
2021/10/03 07:36:57;;;;;;;59.95;30.58;;;;;;;14.78;100.00;100126.81;4877833;29;20053;-86
2021/10/03 07:39:24;;;;;;;78.72;34.60;;;;;;;14.57;100.00;100137.84;4879675;29;20044;-87
2021/10/03 07:41:51;;;;;;;74.90;33.30;;;;;;;14.44;100.00;100130.91;4879851;29;20045;-91
2021/10/03 07:44:18;;;;;;;67.50;32.20;;;;;;;14.76;100.00;100133.97;4872730;29;20492;-86
2021/10/03 07:46:48;;;;;;;55.13;28.33;;;;;;;14.99;100.00;100124.50;4876252;29;20057;-88
2021/10/03 07:49:15;;;;;;;53.28;29.02;;;;;;;15.21;100.00;100135.16;4877934;29;20049;-88
2021/10/03 07:51:45;;;;;;;66.65;30.95;;;;;;;15.07;100.00;100125.59;4875278;29;20110;-90
2021/10/03 07:54:12;;;;;;;67.20;29.23;;;;;;;15.42;100.00;100124.91;4874270;29;20046;-86
2021/10/03 07:56:41;;;;;;;60.28;31.35;;;;;;;15.34;100.00;100120.22;4874297;29;20151;-87
2021/10/03 07:59:08;;;;;;;59.35;28.27;;;;;;;15.57;100.00;100129.06;4876473;29;20041;-85
2021/10/03 08:01:35;;;;;;;55.40;30.63;;;;;;;15.76;100.00;100123.31;4874196;29;20480;-88
2021/10/03 08:04:03;;;;;;;49.08;27.45;;;;;;;15.56;100.00;100122.13;4875415;29;20045;-88
2021/10/03 08:06:31;;;;;;;56.05;30.10;;;;;;;15.55;100.00;100127.47;4880083;29;20113;-87
2021/10/03 08:08:59;;;;;;;50.60;28.95;;;;;;;15.47;100.00;100120.16;4877356;29;20037;-90
2021/10/03 08:11:26;;;;;;;58.30;30.70;;;;;;;15.57;100.00;100130.84;4874559;29;20052;-90
2021/10/03 08:13:55;;;;;;;48.53;27.95;;;;;;;15.62;100.00;100129.56;4873117;29;20338;-93
2021/10/03 08:16:23;;;;;;;56.78;28.50;;;;;;;15.64;100.00;100129.47;4873190;29;20489;-91
2021/10/03 08:18:50;;;;;;;58.60;30.58;;;;;;;15.73;100.00;100123.56;4877864;29;20045;-91
2021/10/03 08:21:17;;;;;;;49.30;28.30;;;;;;;15.88;100.00;100126.84;4872076;29;20373;-89
2021/10/03 08:23:47;;;;;;;52.42;29.88;;;;;;;15.92;100.00;100136.16;4876452;29;20049;-89
2021/10/03 08:26:13;;;;;;;55.75;30.15;;;;;;;15.90;100.00;100130.19;4884928;29;20461;-88
2021/10/03 08:28:42;;;;;;;58.90;32.83;;;;;;;15.84;100.00;100134.09;4883404;29;20053;-86
2021/10/03 08:31:11;;;;;;;67.50;34.05;;;;;;;15.93;100.00;100146.59;4877164;29;20046;-92
2021/10/03 08:33:38;;;;;;;77.57;38.38;;;;;;;15.67;100.00;100142.41;4875689;29;20041;-91
2021/10/03 08:36:05;;;;;;;70.43;35.42;;;;;;;15.91;100.00;100142.38;4876450;29;20057;-89
2021/10/03 08:38:32;;;;;;;67.82;36.25;;;;;;;16.21;100.00;100142.72;4874519;29;20044;-90
2021/10/03 08:41:03;;;;;;;66.35;32.42;;;;;;;16.40;100.00;100142.16;4876121;29;20124;-91
2021/10/03 08:43:30;;;;;;;66.18;34.25;;;;;;;16.29;100.00;100146.56;4872564;29;20041;-91
2021/10/03 08:46:08;;;;;;;65.05;33.33;;;;;;;16.85;100.00;100146.69;4875548;29;20087;-90
2021/10/03 08:48:35;;;;;;;51.58;32.15;;;;;;;17.02;100.00;100138.31;4879325;29;20400;-90
2021/10/03 08:51:02;;;;;;;60.00;34.10;;;;;;;16.74;100.00;100140.47;4879495;29;20049;-90
2021/10/03 08:53:31;;;;;;;67.78;35.15;;;;;;;16.90;100.00;100129.59;4879811;29;20064;-88
2021/10/03 08:55:58;;;;;;;63.95;36.20;;;;;;;17.19;99.90;100134.34;4879961;29;20056;-87
2021/10/03 08:58:25;;;;;;;63.58;32.67;;;;;;;17.43;98.46;100131.56;4886112;29;20049;-91
2021/10/03 09:00:52;;;;;;;66.88;35.70;;;;;;;17.09;100.00;100128.97;4879921;29;20045;-90
2021/10/03 09:03:19;;;;;;;60.45;33.70;;;;;;;17.13;99.97;100135.66;4882335;29;20045;-92
2021/10/03 09:05:55;;;;;;;63.33;31.98;;;;;;;17.29;99.71;100141.41;4879373;29;20045;-89
2021/10/03 09:08:30;;;;;;;63.15;33.13;;;;;;;17.58;95.72;100138.25;4880254;29;20120;-89
2021/10/03 09:11:03;;;;;;;54.03;31.45;;;;;;;17.38;96.88;100144.28;4880638;29;20052;-90
2021/10/03 09:13:32;;;;;;;50.40;29.90;;;;;;;17.26;98.51;100151.38;4880189;29;20114;-90
2021/10/03 09:16:13;;;;;;;50.00;29.30;;;;;;;17.50;95.61;100148.56;4878550;29;20045;-90
2021/10/03 09:18:48;;;;;;;52.55;29.20;;;;;;;17.55;95.42;100141.13;4880092;29;20071;-90
2021/10/03 09:21:34;;;;;;;50.92;27.95;;;;;;;17.43;95.79;100142.09;4876500;29;20060;-88
2021/10/03 09:24:04;;;;;;;46.40;28.15;;;;;;;17.98;93.77;100133.19;4880158;29;20068;-88
2021/10/03 09:26:32;;;;;;;49.53;27.70;;;;;;;18.09;91.59;100131.47;4879575;29;20045;-87
2021/10/03 09:29:17;;;;;;;51.90;29.85;;;;;;;17.69;94.01;100138.22;4876751;29;20055;-87
2021/10/03 09:32:04;;;;;;;59.38;33.40;;;;;;;17.97;92.20;100135.97;4877282;29;20402;-91
2021/10/03 09:34:32;;;;;;;45.65;27.55;;;;;;;18.28;90.03;100134.25;4877094;29;20093;-91
2021/10/03 09:37:17;;;;;;;46.92;29.92;;;;;;;18.36;88.26;100123.06;4881302;29;20516;-91
2021/10/03 09:39:44;;;;;;;42.08;27.33;;;;;;;18.59;86.26;100121.94;4878961;29;20053;-91
2021/10/03 09:42:13;;;;;;;44.22;26.15;;;;;;;18.50;86.99;100125.38;4885783;29;20048;-91
2021/10/03 09:44:59;;;;;;;45.30;24.83;;;;;;;18.83;84.88;100129.59;4874008;29;20053;-89
2021/10/03 09:47:26;;;;;;;41.53;24.75;;;;;;;18.32;86.26;100133.88;4877356;29;20449;-86
2021/10/03 09:49:54;;;;;;;44.63;25.73;;;;;;;18.33;86.47;100127.63;4878530;29;20041;-85
2021/10/03 09:52:21;;;;;;;47.45;27.60;;;;;;;18.57;84.82;100129.16;4878479;29;20397;-85
2021/10/03 09:54:49;;;;;;;45.67;27.80;;;;;;;18.89;82.96;100129.06;4873879;29;20056;-86
2021/10/03 09:57:18;;;;;;;43.10;26.48;;;;;;;18.69;83.67;100122.84;4880431;29;20116;-90
2021/10/03 09:59:45;;;;;;;43.65;25.23;;;;;;;18.92;81.22;100127.97;4879643;29;20760;-85
2021/10/03 10:02:12;;;;;;;44.25;28.25;;;;;;;19.26;79.82;100105.53;4874074;29;20076;-87
2021/10/03 10:04:39;;;;;;;46.67;25.92;;;;;;;19.08;79.68;100118.56;4878668;29;20523;-89
2021/10/03 10:07:06;;;;;;;36.58;22.40;;;;;;;19.17;79.28;100116.06;4874476;29;20073;-90
2021/10/03 10:09:34;;;;;;;46.65;25.70;;;;;;;19.68;76.21;100113.28;4879438;29;20049;-86
2021/10/03 10:12:07;;;;;;;35.40;22.23;;;;;;;19.87;75.01;100105.38;4874219;29;20825;-87
2021/10/03 10:14:37;;;;;;;39.25;20.10;;;;;;;19.75;72.71;100109.09;4871455;29;20042;-88
2021/10/03 10:17:30;;;;;;;41.05;26.48;;;;;;;19.52;75.47;100108.50;4878514;29;20168;-87
2021/10/03 10:20:24;;;;;;;47.60;25.65;;;;;;;19.60;75.37;100107.84;4869386;29;20512;-89
2021/10/03 10:22:59;;;;;;;48.00;24.58;;;;;;;19.63;74.71;100107.56;4870711;29;20097;-87
2021/10/03 10:25:42;;;;;;;49.00;30.67;;;;;;;20.20;73.30;100105.88;4877116;29;20048;-85
2021/10/03 10:28:21;;;;;;;47.20;28.67;;;;;;;20.50;71.97;100102.22;4871551;29;20121;-86
2021/10/03 10:31:17;;;;;;;49.97;28.48;;;;;;;20.09;73.79;100103.41;4874972;29;20041;-88
2021/10/03 10:33:49;;;;;;;57.15;28.10;;;;;;;20.63;73.29;100096.63;4874653;29;20037;-85
2021/10/03 10:36:34;;;;;;;49.30;30.58;;;;;;;20.98;72.02;100097.72;4873944;29;20080;-86
2021/10/03 10:39:07;;;;;;;52.00;33.58;;;;;;;21.36;69.91;100088.72;4878083;29;20077;-85
2021/10/03 10:41:47;;;;;;;50.95;28.75;;;;;;;21.26;70.12;100093.25;4873769;29;20033;-86
2021/10/03 10:44:28;;;;;;;41.92;25.63;;;;;;;21.51;69.21;100091.69;4865520;29;20037;-85
2021/10/03 10:47:14;;;;;;;50.53;28.38;;;;;;;21.42;69.75;100094.28;4869845;29;20080;-84
2021/10/03 10:49:52;;;;;;;50.08;32.50;;;;;;;21.30;70.22;100082.22;4865542;29;20109;-85
2021/10/03 10:52:19;;;;;;;50.83;28.42;;;;;;;21.09;71.04;100087.78;4864076;29;20049;-84
2021/10/03 10:55:01;;;;;;;49.67;32.55;;;;;;;21.25;71.14;100080.97;4862879;29;20378;-84
2021/10/03 10:57:29;;;;;;;52.50;30.85;;;;;;;21.49;69.99;100078.59;4865404;29;20044;-84
2021/10/03 11:00:22;;;;;;;45.10;31.75;;;;;;;21.43;70.91;100080.03;4863994;29;20096;-84
2021/10/03 11:02:49;;;;;;;36.08;25.42;;;;;;;21.51;70.16;100078.44;4864499;29;20044;-88
2021/10/03 11:05:34;;;;;;;39.72;24.15;;;;;;;21.72;68.61;100073.66;4858700;29;20105;-86
2021/10/03 11:08:07;;;;;;;36.08;23.98;;;;;;;22.15;68.26;100064.06;4861846;29;20517;-88
2021/10/03 11:11:00;;;;;;;32.35;23.08;;;;;;;22.73;65.55;100063.41;4879462;29;20060;-88
2021/10/03 11:13:47;;;;;;;31.83;20.83;;;;;;;22.65;65.17;100056.25;4862964;29;20524;-86